sensor_id;sensor_type;location;lat;lon;timestamp;P1;durP1;ratioP1;P2;durP2;ratioP2
5379;SDS011;2713;42.680;23.310;2022-12-18T00:00:41;4.90;;;4.40;;
5379;SDS011;2713;42.680;23.310;2022-12-18T00:03:08;5.70;;;5.10;;
5379;SDS011;2713;42.680;23.310;2022-12-18T00:05:35;6.20;;;5.53;;
5379;SDS011;2713;42.680;23.310;2022-12-18T00:08:02;6.00;;;5.40;;
5379;SDS011;2713;42.680;23.310;2022-12-18T00:10:30;8.43;;;6.07;;
5379;SDS011;2713;42.680;23.310;2022-12-18T00:12:57;7.17;;;5.33;;
5379;SDS011;2713;42.680;23.310;2022-12-18T00:15:24;6.13;;;5.63;;
5379;SDS011;2713;42.680;23.310;2022-12-18T00:17:50;6.53;;;5.77;;
5379;SDS011;2713;42.680;23.310;2022-12-18T00:20:17;5.80;;;5.30;;
5379;SDS011;2713;42.680;23.310;2022-12-18T00:22:50;9.03;;;6.00;;
5379;SDS011;2713;42.680;23.310;2022-12-18T00:25:17;9.10;;;6.30;;
5379;SDS011;2713;42.680;23.310;2022-12-18T00:27:45;6.53;;;5.70;;
5379;SDS011;2713;42.680;23.310;2022-12-18T00:30:13;7.17;;;6.17;;
5379;SDS011;2713;42.680;23.310;2022-12-18T00:32:40;7.43;;;6.60;;
5379;SDS011;2713;42.680;23.310;2022-12-18T00:35:07;7.77;;;5.90;;
5379;SDS011;2713;42.680;23.310;2022-12-18T00:37:34;7.37;;;6.13;;
5379;SDS011;2713;42.680;23.310;2022-12-18T00:40:01;7.73;;;6.37;;
5379;SDS011;2713;42.680;23.310;2022-12-18T00:42:28;7.70;;;6.13;;
5379;SDS011;2713;42.680;23.310;2022-12-18T00:45:14;7.80;;;6.13;;
5379;SDS011;2713;42.680;23.310;2022-12-18T00:47:41;6.77;;;6.07;;
5379;SDS011;2713;42.680;23.310;2022-12-18T00:50:08;7.23;;;6.17;;
5379;SDS011;2713;42.680;23.310;2022-12-18T00:52:35;7.73;;;6.30;;
5379;SDS011;2713;42.680;23.310;2022-12-18T00:55:02;10.03;;;5.80;;
5379;SDS011;2713;42.680;23.310;2022-12-18T00:57:29;7.60;;;6.33;;
5379;SDS011;2713;42.680;23.310;2022-12-18T00:59:56;6.67;;;6.00;;
5379;SDS011;2713;42.680;23.310;2022-12-18T01:02:24;6.80;;;5.70;;
5379;SDS011;2713;42.680;23.310;2022-12-18T01:04:51;8.67;;;7.07;;
5379;SDS011;2713;42.680;23.310;2022-12-18T01:07:18;7.30;;;6.60;;
5379;SDS011;2713;42.680;23.310;2022-12-18T01:09:45;7.00;;;6.10;;
5379;SDS011;2713;42.680;23.310;2022-12-18T01:12:12;7.73;;;6.93;;
5379;SDS011;2713;42.680;23.310;2022-12-18T01:14:39;8.20;;;6.97;;
5379;SDS011;2713;42.680;23.310;2022-12-18T01:17:06;7.80;;;6.97;;
5379;SDS011;2713;42.680;23.310;2022-12-18T01:19:34;6.40;;;5.80;;
5379;SDS011;2713;42.680;23.310;2022-12-18T01:22:02;7.00;;;5.70;;
5379;SDS011;2713;42.680;23.310;2022-12-18T01:24:29;7.67;;;6.80;;
5379;SDS011;2713;42.680;23.310;2022-12-18T01:26:56;7.50;;;6.30;;
5379;SDS011;2713;42.680;23.310;2022-12-18T01:29:23;7.73;;;6.50;;
5379;SDS011;2713;42.680;23.310;2022-12-18T01:31:49;7.50;;;6.70;;
5379;SDS011;2713;42.680;23.310;2022-12-18T01:34:16;9.00;;;6.63;;
5379;SDS011;2713;42.680;23.310;2022-12-18T01:36:44;9.00;;;7.20;;
5379;SDS011;2713;42.680;23.310;2022-12-18T01:39:12;10.63;;;7.13;;
5379;SDS011;2713;42.680;23.310;2022-12-18T01:41:41;9.70;;;7.50;;
5379;SDS011;2713;42.680;23.310;2022-12-18T01:47:21;8.27;;;6.90;;
5379;SDS011;2713;42.680;23.310;2022-12-18T01:49:51;7.00;;;6.27;;
5379;SDS011;2713;42.680;23.310;2022-12-18T01:52:20;7.33;;;6.60;;
5379;SDS011;2713;42.680;23.310;2022-12-18T01:54:51;8.33;;;6.50;;
5379;SDS011;2713;42.680;23.310;2022-12-18T01:57:19;8.13;;;6.67;;
5379;SDS011;2713;42.680;23.310;2022-12-18T01:59:47;7.43;;;6.50;;
5379;SDS011;2713;42.680;23.310;2022-12-18T02:02:18;8.20;;;6.83;;
5379;SDS011;2713;42.680;23.310;2022-12-18T02:04:46;8.30;;;6.43;;
5379;SDS011;2713;42.680;23.310;2022-12-18T02:07:15;6.95;;;6.22;;
5379;SDS011;2713;42.680;23.310;2022-12-18T02:09:53;10.47;;;6.70;;
5379;SDS011;2713;42.680;23.310;2022-12-18T02:12:26;7.33;;;6.40;;
5379;SDS011;2713;42.680;23.310;2022-12-18T02:15:02;8.40;;;6.27;;
5379;SDS011;2713;42.680;23.310;2022-12-18T02:17:38;7.67;;;6.27;;
5379;SDS011;2713;42.680;23.310;2022-12-18T02:20:12;9.10;;;6.50;;
5379;SDS011;2713;42.680;23.310;2022-12-18T02:22:45;7.40;;;6.20;;
5379;SDS011;2713;42.680;23.310;2022-12-18T02:25:24;8.50;;;6.67;;
5379;SDS011;2713;42.680;23.310;2022-12-18T02:28:08;8.27;;;6.70;;
5379;SDS011;2713;42.680;23.310;2022-12-18T02:30:38;9.10;;;6.83;;
5379;SDS011;2713;42.680;23.310;2022-12-18T02:33:07;9.00;;;6.67;;
5379;SDS011;2713;42.680;23.310;2022-12-18T02:35:38;6.33;;;5.73;;
5379;SDS011;2713;42.680;23.310;2022-12-18T02:38:07;6.33;;;5.70;;
5379;SDS011;2713;42.680;23.310;2022-12-18T02:40:36;6.70;;;6.00;;
5379;SDS011;2713;42.680;23.310;2022-12-18T02:43:08;7.40;;;6.30;;
5379;SDS011;2713;42.680;23.310;2022-12-18T02:45:45;6.53;;;5.82;;
5379;SDS011;2713;42.680;23.310;2022-12-18T02:48:15;6.03;;;5.43;;
5379;SDS011;2713;42.680;23.310;2022-12-18T02:50:44;8.55;;;5.28;;
5379;SDS011;2713;42.680;23.310;2022-12-18T02:53:17;6.17;;;5.57;;
5379;SDS011;2713;42.680;23.310;2022-12-18T02:55:53;6.60;;;5.97;;
5379;SDS011;2713;42.680;23.310;2022-12-18T02:58:30;6.50;;;5.95;;
5379;SDS011;2713;42.680;23.310;2022-12-18T03:01:12;6.45;;;5.75;;
5379;SDS011;2713;42.680;23.310;2022-12-18T03:03:46;7.00;;;6.15;;
5379;SDS011;2713;42.680;23.310;2022-12-18T03:06:18;6.75;;;5.53;;
5379;SDS011;2713;42.680;23.310;2022-12-18T03:08:51;6.57;;;5.88;;
5379;SDS011;2713;42.680;23.310;2022-12-18T03:11:25;6.90;;;6.10;;
5379;SDS011;2713;42.680;23.310;2022-12-18T03:14:10;7.68;;;6.20;;
5379;SDS011;2713;42.680;23.310;2022-12-18T03:16:45;8.75;;;6.22;;
5379;SDS011;2713;42.680;23.310;2022-12-18T03:19:15;8.75;;;6.40;;
5379;SDS011;2713;42.680;23.310;2022-12-18T03:21:49;6.70;;;6.00;;
5379;SDS011;2713;42.680;23.310;2022-12-18T03:24:19;7.97;;;6.63;;
5379;SDS011;2713;42.680;23.310;2022-12-18T03:26:50;7.90;;;6.47;;
5379;SDS011;2713;42.680;23.310;2022-12-18T03:29:24;7.00;;;6.30;;
5379;SDS011;2713;42.680;23.310;2022-12-18T03:31:58;7.63;;;6.65;;
5379;SDS011;2713;42.680;23.310;2022-12-18T03:34:32;7.80;;;6.60;;
5379;SDS011;2713;42.680;23.310;2022-12-18T03:37:05;7.90;;;6.25;;
5379;SDS011;2713;42.680;23.310;2022-12-18T03:39:33;8.48;;;6.10;;
5379;SDS011;2713;42.680;23.310;2022-12-18T03:42:01;6.30;;;5.38;;
5379;SDS011;2713;42.680;23.310;2022-12-18T03:44:42;6.47;;;5.88;;
5379;SDS011;2713;42.680;23.310;2022-12-18T03:47:15;7.88;;;6.45;;
5379;SDS011;2713;42.680;23.310;2022-12-18T03:49:50;8.40;;;6.83;;
5379;SDS011;2713;42.680;23.310;2022-12-18T03:52:25;9.63;;;6.28;;
5379;SDS011;2713;42.680;23.310;2022-12-18T03:54:55;9.70;;;6.88;;
5379;SDS011;2713;42.680;23.310;2022-12-18T03:57:25;8.33;;;6.97;;
5379;SDS011;2713;42.680;23.310;2022-12-18T03:59:58;8.45;;;6.53;;
5379;SDS011;2713;42.680;23.310;2022-12-18T04:02:39;7.90;;;6.88;;
5379;SDS011;2713;42.680;23.310;2022-12-18T04:05:13;6.85;;;6.15;;
5379;SDS011;2713;42.680;23.310;2022-12-18T04:07:42;7.53;;;6.70;;
5379;SDS011;2713;42.680;23.310;2022-12-18T04:10:12;7.95;;;6.60;;
5379;SDS011;2713;42.680;23.310;2022-12-18T04:12:41;13.10;;;7.40;;
5379;SDS011;2713;42.680;23.310;2022-12-18T04:15:12;7.85;;;7.05;;
5379;SDS011;2713;42.680;23.310;2022-12-18T04:17:41;9.80;;;7.88;;
5379;SDS011;2713;42.680;23.310;2022-12-18T04:20:16;8.07;;;7.00;;
5379;SDS011;2713;42.680;23.310;2022-12-18T04:22:44;9.20;;;7.23;;
5379;SDS011;2713;42.680;23.310;2022-12-18T04:25:12;7.55;;;5.95;;
5379;SDS011;2713;42.680;23.310;2022-12-18T04:27:50;8.90;;;7.00;;
5379;SDS011;2713;42.680;23.310;2022-12-18T04:30:19;13.37;;;6.47;;
5379;SDS011;2713;42.680;23.310;2022-12-18T04:32:46;11.20;;;7.38;;
5379;SDS011;2713;42.680;23.310;2022-12-18T04:35:13;7.90;;;7.00;;
5379;SDS011;2713;42.680;23.310;2022-12-18T04:37:42;9.63;;;7.40;;
5379;SDS011;2713;42.680;23.310;2022-12-18T04:40:10;10.53;;;7.97;;
5379;SDS011;2713;42.680;23.310;2022-12-18T04:42:41;8.67;;;6.57;;
5379;SDS011;2713;42.680;23.310;2022-12-18T04:45:08;10.33;;;7.37;;
5379;SDS011;2713;42.680;23.310;2022-12-18T04:47:36;9.67;;;7.10;;
5379;SDS011;2713;42.680;23.310;2022-12-18T04:50:04;8.30;;;6.67;;
5379;SDS011;2713;42.680;23.310;2022-12-18T04:52:31;11.63;;;8.07;;
5379;SDS011;2713;42.680;23.310;2022-12-18T04:54:58;10.75;;;7.70;;
5379;SDS011;2713;42.680;23.310;2022-12-18T04:57:25;9.85;;;7.60;;
5379;SDS011;2713;42.680;23.310;2022-12-18T04:59:52;11.55;;;8.38;;
5379;SDS011;2713;42.680;23.310;2022-12-18T05:02:19;10.20;;;7.30;;
5379;SDS011;2713;42.680;23.310;2022-12-18T05:04:47;11.07;;;8.55;;
5379;SDS011;2713;42.680;23.310;2022-12-18T05:07:14;10.38;;;8.27;;
5379;SDS011;2713;42.680;23.310;2022-12-18T05:09:41;9.48;;;8.00;;
5379;SDS011;2713;42.680;23.310;2022-12-18T05:12:07;10.23;;;8.02;;
5379;SDS011;2713;42.680;23.310;2022-12-18T05:14:34;12.35;;;9.27;;
5379;SDS011;2713;42.680;23.310;2022-12-18T05:17:01;9.52;;;8.32;;
5379;SDS011;2713;42.680;23.310;2022-12-18T05:19:28;12.77;;;9.18;;
5379;SDS011;2713;42.680;23.310;2022-12-18T05:21:56;11.52;;;8.50;;
5379;SDS011;2713;42.680;23.310;2022-12-18T05:24:23;12.45;;;8.93;;
5379;SDS011;2713;42.680;23.310;2022-12-18T05:26:50;11.20;;;8.00;;
5379;SDS011;2713;42.680;23.310;2022-12-18T05:29:16;11.77;;;8.65;;
5379;SDS011;2713;42.680;23.310;2022-12-18T05:31:43;12.25;;;8.70;;
5379;SDS011;2713;42.680;23.310;2022-12-18T05:34:10;11.77;;;8.23;;
5379;SDS011;2713;42.680;23.310;2022-12-18T05:36:37;12.93;;;9.15;;
5379;SDS011;2713;42.680;23.310;2022-12-18T05:39:05;11.98;;;9.10;;
5379;SDS011;2713;42.680;23.310;2022-12-18T05:41:32;16.15;;;10.13;;
5379;SDS011;2713;42.680;23.310;2022-12-18T05:43:59;15.05;;;9.10;;
5379;SDS011;2713;42.680;23.310;2022-12-18T05:46:26;11.00;;;8.45;;
5379;SDS011;2713;42.680;23.310;2022-12-18T05:48:53;11.50;;;7.97;;
5379;SDS011;2713;42.680;23.310;2022-12-18T05:51:20;15.45;;;8.43;;
5379;SDS011;2713;42.680;23.310;2022-12-18T05:53:48;12.13;;;8.75;;
5379;SDS011;2713;42.680;23.310;2022-12-18T05:56:17;20.95;;;10.30;;
5379;SDS011;2713;42.680;23.310;2022-12-18T05:58:45;15.27;;;9.70;;
5379;SDS011;2713;42.680;23.310;2022-12-18T06:01:13;12.23;;;9.50;;
5379;SDS011;2713;42.680;23.310;2022-12-18T06:03:41;14.15;;;9.85;;
5379;SDS011;2713;42.680;23.310;2022-12-18T06:06:15;14.07;;;10.00;;
5379;SDS011;2713;42.680;23.310;2022-12-18T06:08:43;14.30;;;9.35;;
5379;SDS011;2713;42.680;23.310;2022-12-18T06:11:10;15.93;;;10.57;;
5379;SDS011;2713;42.680;23.310;2022-12-18T06:13:38;14.27;;;9.98;;
5379;SDS011;2713;42.680;23.310;2022-12-18T06:16:05;12.93;;;9.52;;
5379;SDS011;2713;42.680;23.310;2022-12-18T06:18:33;16.92;;;10.50;;
5379;SDS011;2713;42.680;23.310;2022-12-18T06:21:00;14.43;;;9.90;;
5379;SDS011;2713;42.680;23.310;2022-12-18T06:23:27;16.00;;;10.55;;
5379;SDS011;2713;42.680;23.310;2022-12-18T06:25:54;15.82;;;9.80;;
5379;SDS011;2713;42.680;23.310;2022-12-18T06:28:21;14.18;;;9.75;;
5379;SDS011;2713;42.680;23.310;2022-12-18T06:30:49;15.00;;;10.07;;
5379;SDS011;2713;42.680;23.310;2022-12-18T06:33:16;15.93;;;9.65;;
5379;SDS011;2713;42.680;23.310;2022-12-18T06:35:43;17.40;;;10.70;;
5379;SDS011;2713;42.680;23.310;2022-12-18T06:38:10;14.60;;;9.93;;
5379;SDS011;2713;42.680;23.310;2022-12-18T06:40:37;17.90;;;10.80;;
5379;SDS011;2713;42.680;23.310;2022-12-18T06:43:05;15.57;;;10.82;;
5379;SDS011;2713;42.680;23.310;2022-12-18T06:45:32;17.45;;;11.02;;
5379;SDS011;2713;42.680;23.310;2022-12-18T06:48:00;13.95;;;10.73;;
5379;SDS011;2713;42.680;23.310;2022-12-18T06:50:27;13.68;;;9.70;;
5379;SDS011;2713;42.680;23.310;2022-12-18T06:52:54;16.52;;;10.45;;
5379;SDS011;2713;42.680;23.310;2022-12-18T06:55:21;14.70;;;10.70;;
5379;SDS011;2713;42.680;23.310;2022-12-18T06:57:48;17.40;;;11.18;;
5379;SDS011;2713;42.680;23.310;2022-12-18T07:00:15;15.18;;;10.82;;
5379;SDS011;2713;42.680;23.310;2022-12-18T07:02:42;14.55;;;9.60;;
5379;SDS011;2713;42.680;23.310;2022-12-18T07:05:10;12.68;;;10.13;;
5379;SDS011;2713;42.680;23.310;2022-12-18T07:07:37;14.40;;;9.95;;
5379;SDS011;2713;42.680;23.310;2022-12-18T07:10:04;15.38;;;9.90;;
5379;SDS011;2713;42.680;23.310;2022-12-18T07:12:32;17.00;;;11.70;;
5379;SDS011;2713;42.680;23.310;2022-12-18T07:14:59;17.33;;;10.80;;
5379;SDS011;2713;42.680;23.310;2022-12-18T07:17:26;13.45;;;10.52;;
5379;SDS011;2713;42.680;23.310;2022-12-18T07:19:53;14.10;;;9.93;;
5379;SDS011;2713;42.680;23.310;2022-12-18T07:22:21;15.38;;;11.10;;
5379;SDS011;2713;42.680;23.310;2022-12-18T07:24:48;18.10;;;11.50;;
5379;SDS011;2713;42.680;23.310;2022-12-18T07:27:15;16.83;;;11.43;;
5379;SDS011;2713;42.680;23.310;2022-12-18T07:29:42;14.77;;;10.45;;
5379;SDS011;2713;42.680;23.310;2022-12-18T07:32:08;16.15;;;10.13;;
5379;SDS011;2713;42.680;23.310;2022-12-18T07:34:35;17.85;;;10.80;;
5379;SDS011;2713;42.680;23.310;2022-12-18T07:37:02;18.23;;;11.35;;
5379;SDS011;2713;42.680;23.310;2022-12-18T07:39:31;17.75;;;12.35;;
5379;SDS011;2713;42.680;23.310;2022-12-18T07:41:58;19.35;;;12.75;;
5379;SDS011;2713;42.680;23.310;2022-12-18T07:44:42;20.05;;;13.30;;
5379;SDS011;2713;42.680;23.310;2022-12-18T07:47:09;21.35;;;14.23;;
5379;SDS011;2713;42.680;23.310;2022-12-18T07:49:36;20.17;;;12.98;;
5379;SDS011;2713;42.680;23.310;2022-12-18T07:52:03;17.25;;;12.85;;
5379;SDS011;2713;42.680;23.310;2022-12-18T07:54:31;18.92;;;13.15;;
5379;SDS011;2713;42.680;23.310;2022-12-18T07:56:58;21.17;;;13.35;;
5379;SDS011;2713;42.680;23.310;2022-12-18T07:59:26;21.80;;;14.00;;
5379;SDS011;2713;42.680;23.310;2022-12-18T08:01:52;22.60;;;13.75;;
5379;SDS011;2713;42.680;23.310;2022-12-18T08:04:19;24.52;;;13.77;;
5379;SDS011;2713;42.680;23.310;2022-12-18T08:06:46;22.30;;;14.52;;
5379;SDS011;2713;42.680;23.310;2022-12-18T08:09:13;20.67;;;13.52;;
5379;SDS011;2713;42.680;23.310;2022-12-18T08:11:41;18.73;;;12.73;;
5379;SDS011;2713;42.680;23.310;2022-12-18T08:14:08;21.83;;;12.55;;
5379;SDS011;2713;42.680;23.310;2022-12-18T08:16:36;19.88;;;13.38;;
5379;SDS011;2713;42.680;23.310;2022-12-18T08:19:03;15.40;;;10.65;;
5379;SDS011;2713;42.680;23.310;2022-12-18T08:21:30;24.27;;;14.20;;
5379;SDS011;2713;42.680;23.310;2022-12-18T08:23:58;20.90;;;14.02;;
5379;SDS011;2713;42.680;23.310;2022-12-18T08:26:27;22.13;;;14.95;;
5379;SDS011;2713;42.680;23.310;2022-12-18T08:28:57;22.48;;;15.57;;
5379;SDS011;2713;42.680;23.310;2022-12-18T08:31:26;25.95;;;15.18;;
5379;SDS011;2713;42.680;23.310;2022-12-18T08:33:54;20.25;;;13.60;;
5379;SDS011;2713;42.680;23.310;2022-12-18T08:36:22;20.85;;;13.68;;
5379;SDS011;2713;42.680;23.310;2022-12-18T08:38:50;18.50;;;13.18;;
5379;SDS011;2713;42.680;23.310;2022-12-18T08:41:16;20.75;;;13.77;;
5379;SDS011;2713;42.680;23.310;2022-12-18T08:43:44;22.67;;;13.98;;
5379;SDS011;2713;42.680;23.310;2022-12-18T08:46:32;19.33;;;12.45;;
5379;SDS011;2713;42.680;23.310;2022-12-18T08:49:02;19.80;;;12.90;;
5379;SDS011;2713;42.680;23.310;2022-12-18T08:51:29;17.20;;;11.98;;
5379;SDS011;2713;42.680;23.310;2022-12-18T08:53:56;17.83;;;12.00;;
5379;SDS011;2713;42.680;23.310;2022-12-18T08:56:23;19.35;;;11.82;;
5379;SDS011;2713;42.680;23.310;2022-12-18T08:58:51;17.90;;;11.98;;
5379;SDS011;2713;42.680;23.310;2022-12-18T09:01:18;17.15;;;11.57;;
5379;SDS011;2713;42.680;23.310;2022-12-18T09:03:47;17.85;;;11.35;;
5379;SDS011;2713;42.680;23.310;2022-12-18T09:06:14;19.17;;;12.95;;
5379;SDS011;2713;42.680;23.310;2022-12-18T09:08:42;17.98;;;12.65;;
5379;SDS011;2713;42.680;23.310;2022-12-18T09:11:11;18.98;;;13.55;;
5379;SDS011;2713;42.680;23.310;2022-12-18T09:13:40;19.70;;;13.05;;
5379;SDS011;2713;42.680;23.310;2022-12-18T09:16:07;21.33;;;12.98;;
5379;SDS011;2713;42.680;23.310;2022-12-18T09:18:34;17.92;;;12.80;;
5379;SDS011;2713;42.680;23.310;2022-12-18T09:21:08;19.90;;;12.25;;
5379;SDS011;2713;42.680;23.310;2022-12-18T09:23:36;19.25;;;12.85;;
5379;SDS011;2713;42.680;23.310;2022-12-18T09:26:03;22.02;;;14.32;;
5379;SDS011;2713;42.680;23.310;2022-12-18T09:28:30;18.77;;;11.57;;
5379;SDS011;2713;42.680;23.310;2022-12-18T09:30:57;17.33;;;11.63;;
5379;SDS011;2713;42.680;23.310;2022-12-18T09:33:24;16.42;;;10.98;;
5379;SDS011;2713;42.680;23.310;2022-12-18T09:35:51;17.35;;;10.50;;
5379;SDS011;2713;42.680;23.310;2022-12-18T09:38:19;20.17;;;12.15;;
5379;SDS011;2713;42.680;23.310;2022-12-18T09:40:48;19.02;;;10.90;;
5379;SDS011;2713;42.680;23.310;2022-12-18T09:43:18;16.88;;;11.65;;
5379;SDS011;2713;42.680;23.310;2022-12-18T09:45:50;15.93;;;11.07;;
5379;SDS011;2713;42.680;23.310;2022-12-18T09:48:23;16.60;;;10.90;;
5379;SDS011;2713;42.680;23.310;2022-12-18T09:50:55;17.98;;;10.75;;
5379;SDS011;2713;42.680;23.310;2022-12-18T09:53:31;14.18;;;10.45;;
5379;SDS011;2713;42.680;23.310;2022-12-18T09:56:02;17.42;;;10.70;;
5379;SDS011;2713;42.680;23.310;2022-12-18T09:58:31;16.33;;;11.95;;
5379;SDS011;2713;42.680;23.310;2022-12-18T10:01:06;18.90;;;12.27;;
5379;SDS011;2713;42.680;23.310;2022-12-18T10:03:36;17.55;;;11.48;;
5379;SDS011;2713;42.680;23.310;2022-12-18T10:06:04;19.88;;;11.50;;
5379;SDS011;2713;42.680;23.310;2022-12-18T10:08:39;18.13;;;11.32;;
5379;SDS011;2713;42.680;23.310;2022-12-18T10:11:20;16.70;;;10.90;;
5379;SDS011;2713;42.680;23.310;2022-12-18T10:25:28;16.98;;;10.40;;
5379;SDS011;2713;42.680;23.310;2022-12-18T10:28:07;19.48;;;10.95;;
5379;SDS011;2713;42.680;23.310;2022-12-18T10:30:37;24.95;;;12.60;;
5379;SDS011;2713;42.680;23.310;2022-12-18T10:33:05;15.75;;;11.07;;
5379;SDS011;2713;42.680;23.310;2022-12-18T10:35:37;17.15;;;11.90;;
5379;SDS011;2713;42.680;23.310;2022-12-18T10:38:19;19.10;;;12.15;;
5379;SDS011;2713;42.680;23.310;2022-12-18T10:40:51;20.23;;;12.23;;
5379;SDS011;2713;42.680;23.310;2022-12-18T10:43:20;17.42;;;11.20;;
5379;SDS011;2713;42.680;23.310;2022-12-18T10:46:00;20.15;;;11.50;;
5379;SDS011;2713;42.680;23.310;2022-12-18T10:48:30;15.80;;;11.65;;
5379;SDS011;2713;42.680;23.310;2022-12-18T10:50:58;19.23;;;12.95;;
5379;SDS011;2713;42.680;23.310;2022-12-18T10:53:27;17.65;;;11.13;;
5379;SDS011;2713;42.680;23.310;2022-12-18T10:55:57;15.88;;;11.70;;
5379;SDS011;2713;42.680;23.310;2022-12-18T10:58:25;23.45;;;13.25;;
5379;SDS011;2713;42.680;23.310;2022-12-18T11:01:04;23.42;;;12.52;;
5379;SDS011;2713;42.680;23.310;2022-12-18T11:03:33;17.85;;;11.55;;
5379;SDS011;2713;42.680;23.310;2022-12-18T11:06:02;18.60;;;11.77;;
5379;SDS011;2713;42.680;23.310;2022-12-18T11:08:34;12.88;;;9.60;;
5379;SDS011;2713;42.680;23.310;2022-12-18T11:11:03;14.10;;;9.10;;
5379;SDS011;2713;42.680;23.310;2022-12-18T11:13:33;15.98;;;10.60;;
5379;SDS011;2713;42.680;23.310;2022-12-18T11:16:00;16.85;;;11.25;;
5379;SDS011;2713;42.680;23.310;2022-12-18T11:18:28;18.75;;;10.75;;
5379;SDS011;2713;42.680;23.310;2022-12-18T11:20:57;15.68;;;10.95;;
5379;SDS011;2713;42.680;23.310;2022-12-18T11:23:26;16.25;;;11.20;;
5379;SDS011;2713;42.680;23.310;2022-12-18T11:25:55;13.88;;;10.00;;
5379;SDS011;2713;42.680;23.310;2022-12-18T11:28:29;17.42;;;10.90;;
5379;SDS011;2713;42.680;23.310;2022-12-18T11:31:19;14.35;;;8.73;;
5379;SDS011;2713;42.680;23.310;2022-12-18T11:33:53;17.10;;;10.15;;
5379;SDS011;2713;42.680;23.310;2022-12-18T11:36:24;15.48;;;10.52;;
5379;SDS011;2713;42.680;23.310;2022-12-18T11:38:54;17.27;;;10.70;;
5379;SDS011;2713;42.680;23.310;2022-12-18T11:41:25;22.08;;;11.45;;
5379;SDS011;2713;42.680;23.310;2022-12-18T11:44:13;18.25;;;11.00;;
5379;SDS011;2713;42.680;23.310;2022-12-18T11:46:47;15.77;;;10.35;;
5379;SDS011;2713;42.680;23.310;2022-12-18T11:49:19;15.35;;;10.02;;
5379;SDS011;2713;42.680;23.310;2022-12-18T11:51:53;16.10;;;9.52;;
5379;SDS011;2713;42.680;23.310;2022-12-18T11:54:25;18.60;;;12.27;;
5379;SDS011;2713;42.680;23.310;2022-12-18T11:56:53;15.35;;;10.93;;
5379;SDS011;2713;42.680;23.310;2022-12-18T11:59:28;16.90;;;11.37;;
5379;SDS011;2713;42.680;23.310;2022-12-18T12:02:10;17.17;;;11.70;;
5379;SDS011;2713;42.680;23.310;2022-12-18T12:04:47;17.00;;;11.52;;
5379;SDS011;2713;42.680;23.310;2022-12-18T12:07:29;18.23;;;11.25;;
5379;SDS011;2713;42.680;23.310;2022-12-18T12:10:08;17.77;;;12.27;;
5379;SDS011;2713;42.680;23.310;2022-12-18T12:12:51;19.15;;;11.68;;
5379;SDS011;2713;42.680;23.310;2022-12-18T12:15:33;21.37;;;12.43;;
5379;SDS011;2713;42.680;23.310;2022-12-18T12:18:08;18.07;;;11.50;;
5379;SDS011;2713;42.680;23.310;2022-12-18T12:20:49;18.30;;;11.90;;
5379;SDS011;2713;42.680;23.310;2022-12-18T12:23:26;18.80;;;11.47;;
5379;SDS011;2713;42.680;23.310;2022-12-18T12:26:01;15.57;;;10.73;;
5379;SDS011;2713;42.680;23.310;2022-12-18T12:28:36;15.63;;;10.43;;
5379;SDS011;2713;42.680;23.310;2022-12-18T12:31:19;21.80;;;11.53;;
5379;SDS011;2713;42.680;23.310;2022-12-18T12:33:56;17.80;;;11.63;;
5379;SDS011;2713;42.680;23.310;2022-12-18T12:36:32;18.40;;;12.33;;
5379;SDS011;2713;42.680;23.310;2022-12-18T12:39:07;19.10;;;12.97;;
5379;SDS011;2713;42.680;23.310;2022-12-18T12:41:40;18.60;;;13.27;;
5379;SDS011;2713;42.680;23.310;2022-12-18T12:44:26;18.73;;;12.67;;
5379;SDS011;2713;42.680;23.310;2022-12-18T12:46:59;19.03;;;12.77;;
5379;SDS011;2713;42.680;23.310;2022-12-18T12:49:31;18.35;;;12.52;;
5379;SDS011;2713;42.680;23.310;2022-12-18T12:52:00;21.93;;;14.83;;
5379;SDS011;2713;42.680;23.310;2022-12-18T12:54:31;21.20;;;13.25;;
5379;SDS011;2713;42.680;23.310;2022-12-18T12:57:01;20.53;;;12.53;;
5379;SDS011;2713;42.680;23.310;2022-12-18T12:59:35;19.70;;;12.33;;
5379;SDS011;2713;42.680;23.310;2022-12-18T13:02:16;20.67;;;11.73;;
5379;SDS011;2713;42.680;23.310;2022-12-18T13:04:47;21.27;;;13.57;;
5379;SDS011;2713;42.680;23.310;2022-12-18T13:07:20;23.27;;;14.57;;
5379;SDS011;2713;42.680;23.310;2022-12-18T13:10:12;19.67;;;13.68;;
5379;SDS011;2713;42.680;23.310;2022-12-18T13:12:52;16.23;;;11.48;;
5379;SDS011;2713;42.680;23.310;2022-12-18T13:15:24;17.42;;;12.82;;
5379;SDS011;2713;42.680;23.310;2022-12-18T13:18:09;17.40;;;11.95;;
5379;SDS011;2713;42.680;23.310;2022-12-18T13:20:42;18.50;;;12.30;;
5379;SDS011;2713;42.680;23.310;2022-12-18T13:23:20;23.55;;;13.05;;
5379;SDS011;2713;42.680;23.310;2022-12-18T13:25:54;20.50;;;12.50;;
5379;SDS011;2713;42.680;23.310;2022-12-18T13:28:22;16.50;;;11.60;;
5379;SDS011;2713;42.680;23.310;2022-12-18T13:30:51;18.30;;;11.57;;
5379;SDS011;2713;42.680;23.310;2022-12-18T13:36:16;17.33;;;11.43;;
5379;SDS011;2713;42.680;23.310;2022-12-18T13:41:51;19.52;;;13.25;;
5379;SDS011;2713;42.680;23.310;2022-12-18T13:44:26;19.60;;;12.73;;
5379;SDS011;2713;42.680;23.310;2022-12-18T13:46:58;19.75;;;12.80;;
5379;SDS011;2713;42.680;23.310;2022-12-18T13:49:28;21.83;;;13.68;;
5379;SDS011;2713;42.680;23.310;2022-12-18T13:52:03;22.33;;;14.43;;
5379;SDS011;2713;42.680;23.310;2022-12-18T13:54:42;22.90;;;14.07;;
5379;SDS011;2713;42.680;23.310;2022-12-18T13:57:24;23.08;;;13.32;;
5379;SDS011;2713;42.680;23.310;2022-12-18T13:59:54;18.50;;;12.57;;
5379;SDS011;2713;42.680;23.310;2022-12-18T14:02:21;23.10;;;14.38;;
5379;SDS011;2713;42.680;23.310;2022-12-18T14:04:51;17.42;;;12.63;;
5379;SDS011;2713;42.680;23.310;2022-12-18T14:07:19;17.70;;;11.98;;
5379;SDS011;2713;42.680;23.310;2022-12-18T14:09:49;19.42;;;12.30;;
5379;SDS011;2713;42.680;23.310;2022-12-18T14:12:18;18.08;;;11.05;;
5379;SDS011;2713;42.680;23.310;2022-12-18T14:15:09;16.50;;;11.65;;
5379;SDS011;2713;42.680;23.310;2022-12-18T14:17:47;17.67;;;10.95;;
5379;SDS011;2713;42.680;23.310;2022-12-18T14:20:15;32.63;;;17.33;;
5379;SDS011;2713;42.680;23.310;2022-12-18T14:22:43;20.70;;;13.53;;
5379;SDS011;2713;42.680;23.310;2022-12-18T14:25:17;18.50;;;11.37;;
5379;SDS011;2713;42.680;23.310;2022-12-18T14:27:46;27.10;;;14.90;;
5379;SDS011;2713;42.680;23.310;2022-12-18T14:30:24;16.83;;;11.27;;
5379;SDS011;2713;42.680;23.310;2022-12-18T14:33:05;15.97;;;10.53;;
5379;SDS011;2713;42.680;23.310;2022-12-18T14:35:37;17.20;;;10.43;;
5379;SDS011;2713;42.680;23.310;2022-12-18T14:38:20;13.57;;;10.07;;
5379;SDS011;2713;42.680;23.310;2022-12-18T14:40:53;16.97;;;11.17;;
5379;SDS011;2713;42.680;23.310;2022-12-18T14:43:21;14.13;;;10.20;;
5379;SDS011;2713;42.680;23.310;2022-12-18T14:45:48;13.73;;;9.93;;
5379;SDS011;2713;42.680;23.310;2022-12-18T14:48:16;15.63;;;10.75;;
5379;SDS011;2713;42.680;23.310;2022-12-18T14:50:54;14.50;;;10.55;;
5379;SDS011;2713;42.680;23.310;2022-12-18T14:53:28;16.08;;;10.45;;
5379;SDS011;2713;42.680;23.310;2022-12-18T14:56:00;17.10;;;10.85;;
5379;SDS011;2713;42.680;23.310;2022-12-18T14:58:27;13.37;;;8.90;;
5379;SDS011;2713;42.680;23.310;2022-12-18T15:00:54;13.63;;;8.60;;
5379;SDS011;2713;42.680;23.310;2022-12-18T15:03:21;14.15;;;9.82;;
5379;SDS011;2713;42.680;23.310;2022-12-18T15:05:49;14.23;;;10.40;;
5379;SDS011;2713;42.680;23.310;2022-12-18T15:08:29;15.30;;;10.75;;
5379;SDS011;2713;42.680;23.310;2022-12-18T15:11:00;16.75;;;10.52;;
5379;SDS011;2713;42.680;23.310;2022-12-18T15:13:27;15.98;;;10.40;;
5379;SDS011;2713;42.680;23.310;2022-12-18T15:15:54;13.50;;;9.55;;
5379;SDS011;2713;42.680;23.310;2022-12-18T15:18:25;14.85;;;9.60;;
5379;SDS011;2713;42.680;23.310;2022-12-18T15:20:58;13.98;;;9.10;;
5379;SDS011;2713;42.680;23.310;2022-12-18T15:23:27;14.88;;;10.23;;
5379;SDS011;2713;42.680;23.310;2022-12-18T15:25:57;15.05;;;9.75;;